createdAt,value
2022-08-18T00:01:43.765Z,8.85
2022-08-18T00:04:34.938Z,10.10
2022-08-18T00:07:04.927Z,8.57
2022-08-18T00:09:36.367Z,9.20
2022-08-18T00:12:09.032Z,8.25
2022-08-18T00:14:38.538Z,10.48
2022-08-18T00:17:08.132Z,10.05
2022-08-18T00:19:46.489Z,9.05
2022-08-18T00:22:21.652Z,9.20
2022-08-18T00:24:53.185Z,10.65
2022-08-18T00:27:28.233Z,9.80
2022-08-18T00:29:59.610Z,11.80
2022-08-18T00:32:33.945Z,11.98
2022-08-18T00:35:08.997Z,15.27
2022-08-18T00:37:39.977Z,13.95
2022-08-18T00:40:11.863Z,17.08
2022-08-18T00:42:46.373Z,15.63
2022-08-18T00:45:20.952Z,17.00
2022-08-18T00:47:50.439Z,19.52
2022-08-18T00:50:24.172Z,21.40
2022-08-18T00:52:58.479Z,21.80
2022-08-18T00:55:31.162Z,24.20
2022-08-18T00:58:05.270Z,21.88
2022-08-18T01:00:35.628Z,21.23
2022-08-18T01:03:09.752Z,28.77
2022-08-18T01:05:45.311Z,19.40
2022-08-18T01:08:20.060Z,20.08
2022-08-18T01:11:02.100Z,21.13
2022-08-18T01:13:34.273Z,20.67
2022-08-18T01:16:24.563Z,22.83
2022-08-18T01:19:11.523Z,20.42
2022-08-18T01:21:54.125Z,20.42
2022-08-18T01:24:48.660Z,18.10
2022-08-18T01:27:19.057Z,17.75
2022-08-18T01:29:49.222Z,16.80
2022-08-18T01:32:21.362Z,15.68
2022-08-18T01:34:53.122Z,14.95
2022-08-18T01:37:24.492Z,16.10
2022-08-18T01:41:21.121Z,16.45
2022-08-18T01:42:46.195Z,18.63
2022-08-18T01:45:17.577Z,20.60
2022-08-18T01:47:58.130Z,20.45
2022-08-18T01:50:27.677Z,19.05
2022-08-18T01:52:57.087Z,23.38
2022-08-18T01:55:28.821Z,22.08
2022-08-18T01:57:58.604Z,21.17
2022-08-18T02:00:28.266Z,22.38
2022-08-18T02:03:02.533Z,24.40
2022-08-18T02:05:36.131Z,21.35
2022-08-18T02:08:06.784Z,22.73
2022-08-18T02:10:37.904Z,26.38
2022-08-18T02:13:07.630Z,24.27
2022-08-18T02:15:37.472Z,26.65
2022-08-18T02:18:30.372Z,29.95
2022-08-18T02:21:10.669Z,26.77
2022-08-18T02:23:40.349Z,26.58
2022-08-18T02:26:18.598Z,25.90
2022-08-18T02:28:48.202Z,27.88
2022-08-18T02:31:19.800Z,26.13
2022-08-18T02:33:52.100Z,27.35
2022-08-18T02:36:25.239Z,25.77
2022-08-18T02:38:59.790Z,28.15
2022-08-18T02:41:31.622Z,25.23
2022-08-18T02:44:02.029Z,23.65
2022-08-18T02:46:31.563Z,23.08
2022-08-18T02:49:02.150Z,24.63
2022-08-18T02:51:31.637Z,25.33
2022-08-18T02:54:01.227Z,23.60
2022-08-18T02:56:41.314Z,26.02
2022-08-18T02:59:14.813Z,23.63
2022-08-18T03:01:46.652Z,25.63
2022-08-18T03:04:22.904Z,24.20
2022-08-18T03:06:55.350Z,25.85
2022-08-18T03:09:25.302Z,22.83
2022-08-18T03:11:56.341Z,23.85
2022-08-18T03:14:25.794Z,23.10
2022-08-18T03:16:55.536Z,24.05
2022-08-18T03:19:26.360Z,22.15
2022-08-18T03:22:03.303Z,23.85
2022-08-18T03:24:33.980Z,20.70
2022-08-18T03:27:07.939Z,27.95
2022-08-18T03:29:38.790Z,21.73
2022-08-18T03:32:09.390Z,18.55
2022-08-18T03:34:39.201Z,18.65
2022-08-18T03:37:08.545Z,17.08
2022-08-18T03:39:38.072Z,17.33
2022-08-18T03:42:09.385Z,18.13
2022-08-18T03:44:38.835Z,16.83
2022-08-18T03:47:12.290Z,17.83
2022-08-18T03:49:42.123Z,15.85
2022-08-18T03:52:13.331Z,15.18
2022-08-18T03:54:43.540Z,16.42
2022-08-18T03:57:15.150Z,18.23
2022-08-18T03:59:44.674Z,17.65
2022-08-18T04:02:14.709Z,17.58
2022-08-18T04:04:44.193Z,16.80
2022-08-18T04:07:17.416Z,15.52
2022-08-18T04:09:49.829Z,16.30
2022-08-18T04:12:20.788Z,17.48
2022-08-18T04:14:52.201Z,22.83
2022-08-18T04:17:25.503Z,22.45
2022-08-18T04:19:55.477Z,23.83
2022-08-18T04:22:25.580Z,28.50
2022-08-18T04:24:56.012Z,30.45
2022-08-18T04:27:30.195Z,14.68
2022-08-18T04:30:02.894Z,17.42
2022-08-18T04:32:32.978Z,10.05
2022-08-18T04:35:03.167Z,9.55
2022-08-18T04:37:33.154Z,6.50
2022-08-18T04:40:08.636Z,9.30
2022-08-18T04:42:43.262Z,8.70
2022-08-18T04:45:13.497Z,7.75
2022-08-18T04:47:43.520Z,6.63
2022-08-18T04:50:14.396Z,6.20
2022-08-18T04:53:02.178Z,4.65
2022-08-18T04:55:31.710Z,7.30
2022-08-18T04:58:03.100Z,6.20
2022-08-18T05:00:32.600Z,6.25
2022-08-18T05:03:01.929Z,10.38
2022-08-18T05:05:31.441Z,5.95
2022-08-18T05:08:00.833Z,6.63
2022-08-18T05:10:30.621Z,5.65
2022-08-18T05:13:00.111Z,6.60
2022-08-18T05:15:46.961Z,12.35
2022-08-18T05:18:24.657Z,9.13
2022-08-18T05:20:58.069Z,8.10
2022-08-18T05:23:29.806Z,7.43
2022-08-18T05:26:00.204Z,6.97
2022-08-18T05:28:30.346Z,8.15
2022-08-18T05:31:01.237Z,7.85
2022-08-18T05:33:30.972Z,5.95
2022-08-18T05:36:05.292Z,9.23
2022-08-18T05:38:43.268Z,6.65
2022-08-18T05:41:15.842Z,6.90
2022-08-18T05:43:51.795Z,6.38
2022-08-18T05:46:28.021Z,7.55
2022-08-18T05:48:57.711Z,7.53
2022-08-18T05:51:35.062Z,6.05
2022-08-18T05:54:25.552Z,5.78
2022-08-18T05:56:59.609Z,7.38
2022-08-18T05:59:32.803Z,7.00
2022-08-18T06:02:10.519Z,7.53
2022-08-18T06:04:47.969Z,5.07
2022-08-18T06:07:25.502Z,5.20
2022-08-18T06:10:01.422Z,9.30
2022-08-18T06:12:37.632Z,7.32
2022-08-18T06:15:15.332Z,8.02
2022-08-18T06:18:20.160Z,5.45
2022-08-18T06:21:21.259Z,6.70
2022-08-18T06:23:58.648Z,4.93
2022-08-18T06:26:37.710Z,6.20
2022-08-18T06:29:25.460Z,4.82
2022-08-18T06:32:03.420Z,5.63
2022-08-18T06:34:42.918Z,5.20
2022-08-18T06:37:21.559Z,5.50
2022-08-18T06:39:53.241Z,7.03
2022-08-18T06:42:31.858Z,5.78
2022-08-18T06:45:03.849Z,5.30
2022-08-18T06:47:41.109Z,4.38
2022-08-18T06:50:18.263Z,5.20
2022-08-18T06:52:56.939Z,5.63
2022-08-18T06:55:36.120Z,6.93
2022-08-18T06:58:08.139Z,5.45
2022-08-18T07:00:39.567Z,4.25
2022-08-18T07:03:14.769Z,5.35
2022-08-18T07:06:02.379Z,4.25
2022-08-18T07:08:35.849Z,4.57
2022-08-18T07:11:16.030Z,5.80
2022-08-18T07:13:58.609Z,7.07
2022-08-18T07:16:57.608Z,5.72
2022-08-18T07:19:31.590Z,4.82
2022-08-18T07:22:06.946Z,5.35
2022-08-18T07:24:42.990Z,6.15
2022-08-18T07:27:18.059Z,4.65
2022-08-18T07:30:05.069Z,4.25
2022-08-18T07:32:41.231Z,4.45
2022-08-18T07:35:12.020Z,5.50
2022-08-18T07:37:48.636Z,7.07
2022-08-18T07:40:31.880Z,4.78
2022-08-18T07:43:05.126Z,5.35
2022-08-18T07:45:39.189Z,7.13
2022-08-18T07:48:37.150Z,6.22
2022-08-18T07:51:13.960Z,6.45
2022-08-18T07:53:56.423Z,8.07
2022-08-18T07:56:43.221Z,5.20
2022-08-18T07:59:18.799Z,7.93
2022-08-18T08:01:55.250Z,6.80
2022-08-18T08:04:35.166Z,5.10
2022-08-18T08:07:27.710Z,8.27
2022-08-18T08:10:14.799Z,7.03
2022-08-18T08:13:08.859Z,5.93
2022-08-18T08:15:50.639Z,4.90
2022-08-18T08:18:27.083Z,4.47
2022-08-18T08:21:00.000Z,9.25
2022-08-18T08:23:35.180Z,5.53
2022-08-18T08:26:25.130Z,8.07
2022-08-18T08:29:06.970Z,6.18
2022-08-18T08:31:47.609Z,7.38
2022-08-18T08:34:21.391Z,5.50
2022-08-18T08:36:56.308Z,6.38
2022-08-18T08:39:29.949Z,6.95
2022-08-18T08:42:30.345Z,5.57
2022-08-18T08:45:01.302Z,6.68
2022-08-18T08:47:36.530Z,5.55
2022-08-18T08:50:13.767Z,4.30
2022-08-18T08:52:47.713Z,5.68
2022-08-18T08:55:25.759Z,3.55
2022-08-18T08:58:04.738Z,3.75
2022-08-18T09:00:36.819Z,4.75
2022-08-18T09:03:33.289Z,4.65
2022-08-18T09:06:16.397Z,3.83
2022-08-18T09:09:00.967Z,3.67
2022-08-18T09:11:46.703Z,2.75
2022-08-18T09:14:49.631Z,6.80
2022-08-18T09:17:45.169Z,4.70
2022-08-18T09:20:51.343Z,6.38
2022-08-18T09:23:24.568Z,3.10
2022-08-18T09:25:56.016Z,3.80
2022-08-18T09:28:56.610Z,4.22
2022-08-18T09:31:28.170Z,5.13
2022-08-18T09:34:36.520Z,2.35
2022-08-18T09:37:18.131Z,3.45
2022-08-18T09:40:17.570Z,3.88
2022-08-18T09:45:57.602Z,2.50
2022-08-18T09:48:31.633Z,3.30
2022-08-18T09:50:37.474Z,4.57
2022-08-18T09:51:40.160Z,2.95
2022-08-18T09:54:21.065Z,4.88
2022-08-18T09:57:19.506Z,3.20
2022-08-18T09:59:59.829Z,3.25
2022-08-18T10:03:12.127Z,4.05
2022-08-18T10:05:57.238Z,2.95
2022-08-18T10:08:59.208Z,3.38
2022-08-18T10:11:41.879Z,3.15
2022-08-18T10:14:47.837Z,4.53
2022-08-18T10:17:28.070Z,4.55
2022-08-18T10:20:26.755Z,3.97
2022-08-18T10:22:58.168Z,3.28
2022-08-18T10:25:41.289Z,2.78
2022-08-18T10:28:13.437Z,3.50
2022-08-18T10:31:08.797Z,3.40
2022-08-18T10:34:08.500Z,8.93
2022-08-18T10:36:53.145Z,8.35
2022-08-18T10:39:25.049Z,6.38
2022-08-18T10:42:14.941Z,4.72
2022-08-18T10:44:46.981Z,4.47
2022-08-18T10:47:25.637Z,5.45
2022-08-18T10:50:06.226Z,6.35
2022-08-18T10:53:39.460Z,5.53
2022-08-18T10:56:05.208Z,4.57
2022-08-18T10:58:45.212Z,4.68
2022-08-18T11:01:30.949Z,5.07
2022-08-18T11:04:33.579Z,6.68
2022-08-18T11:07:03.511Z,4.80
2022-08-18T11:09:41.597Z,3.78
2022-08-18T11:12:17.193Z,10.98
2022-08-18T11:15:22.497Z,7.05
2022-08-18T12:31:54.179Z,4.47
2022-08-18T12:34:26.625Z,4.93
2022-08-18T12:36:58.824Z,9.60
2022-08-18T12:39:28.760Z,13.65
2022-08-18T12:41:59.576Z,13.52
2022-08-18T12:44:29.318Z,11.80
2022-08-18T12:47:00.050Z,11.00
2022-08-18T12:49:29.482Z,13.45
2022-08-18T12:51:59.224Z,16.10
2022-08-18T12:54:34.380Z,13.85
2022-08-18T12:57:06.702Z,11.95
2022-08-18T12:59:37.693Z,12.00
2022-08-18T13:02:10.084Z,11.63
2022-08-18T13:04:40.212Z,10.50
2022-08-18T13:07:09.394Z,11.63
2022-08-18T13:09:52.972Z,11.80
2022-08-18T13:12:25.722Z,9.27
2022-08-18T13:14:56.545Z,11.63
2022-08-18T13:17:30.347Z,11.13
2022-08-18T13:20:04.727Z,9.32
2022-08-18T13:22:33.715Z,7.05
2022-08-18T13:25:05.720Z,7.97
2022-08-18T13:27:35.434Z,9.13
2022-08-18T13:30:16.853Z,10.18
2022-08-18T13:33:00.462Z,6.53
2022-08-18T13:35:44.300Z,5.80
2022-08-18T13:38:17.503Z,5.38
2022-08-18T13:40:50.206Z,7.20
2022-08-18T13:43:23.395Z,7.22
2022-08-18T13:45:53.458Z,5.20
2022-08-18T13:48:26.921Z,7.13
2022-08-18T13:50:58.493Z,4.60
2022-08-18T13:53:29.822Z,4.00
2022-08-18T13:56:00.629Z,3.10
2022-08-18T13:58:30.732Z,6.35
2022-08-18T14:01:22.634Z,4.68
2022-08-18T14:03:52.842Z,4.50
2022-08-18T14:06:23.705Z,4.40
2022-08-18T14:08:53.956Z,4.70
2022-08-18T14:11:33.023Z,3.35
2022-08-18T14:14:03.693Z,4.68
2022-08-18T14:16:33.042Z,4.70
2022-08-18T14:19:22.698Z,4.05
2022-08-18T14:22:11.720Z,6.90
2022-08-18T14:24:58.817Z,8.93
2022-08-18T14:27:34.754Z,7.00
2022-08-18T14:30:06.970Z,7.93
2022-08-18T14:32:36.812Z,9.27
2022-08-18T14:36:03.701Z,6.72
2022-08-18T14:38:12.742Z,7.03
2022-08-18T14:40:43.559Z,6.57
2022-08-18T14:43:14.259Z,7.57
2022-08-18T14:45:48.810Z,7.68
2022-08-18T14:48:20.581Z,4.90
2022-08-18T14:50:54.530Z,4.30
2022-08-18T14:53:26.350Z,6.28
2022-08-18T14:55:56.557Z,3.65
2022-08-18T14:58:30.678Z,6.47
2022-08-18T15:01:01.880Z,6.65
2022-08-18T15:03:33.777Z,4.68
2022-08-18T15:06:10.016Z,6.00
2022-08-18T15:08:47.098Z,2.90
2022-08-18T15:11:16.890Z,3.85
2022-08-18T15:13:46.532Z,6.05
2022-08-18T15:16:17.129Z,6.07
2022-08-18T15:18:47.714Z,6.53
2022-08-18T15:21:38.993Z,4.75
2022-08-18T15:24:26.360Z,10.15
2022-08-18T15:26:57.909Z,6.07
2022-08-18T15:29:29.517Z,5.57
2022-08-18T15:32:05.228Z,5.53
2022-08-18T15:34:47.220Z,9.68
2022-08-18T15:37:24.081Z,6.00
2022-08-18T15:40:02.926Z,4.72
2022-08-18T15:42:33.224Z,5.72
2022-08-18T15:45:11.639Z,5.10
2022-08-18T15:47:43.238Z,5.47
2022-08-18T15:50:25.598Z,5.13
2022-08-18T15:52:59.080Z,5.30
2022-08-18T15:55:32.922Z,3.58
2022-08-18T15:58:10.889Z,6.78
2022-08-18T16:00:42.420Z,6.47
2022-08-18T16:03:14.613Z,6.10
2022-08-18T16:05:52.685Z,4.78
2022-08-18T16:08:28.459Z,5.53
2022-08-18T16:11:00.381Z,6.15
2022-08-18T16:13:29.555Z,3.88
2022-08-18T16:15:59.556Z,4.55
2022-08-18T16:18:29.735Z,5.55
2022-08-18T16:21:05.207Z,5.35
2022-08-18T16:23:36.991Z,3.75
2022-08-18T16:26:07.675Z,7.75
2022-08-18T16:28:37.139Z,3.42
2022-08-18T16:31:06.354Z,5.72
2022-08-18T16:33:36.196Z,6.00
2022-08-18T16:36:06.913Z,8.35
2022-08-18T16:38:44.174Z,5.18
2022-08-18T16:41:17.556Z,6.03
2022-08-18T16:43:48.037Z,5.15
2022-08-18T16:46:19.287Z,4.13
2022-08-18T16:48:48.516Z,6.40
2022-08-18T16:51:19.549Z,9.00
2022-08-18T16:53:52.659Z,4.65
2022-08-18T16:56:23.630Z,3.63
2022-08-18T16:59:10.219Z,6.93
2022-08-18T17:01:59.052Z,4.53
2022-08-18T17:04:30.198Z,8.43
2022-08-18T17:06:59.001Z,5.93
2022-08-18T17:09:30.556Z,4.53
2022-08-18T17:11:59.580Z,8.40
2022-08-18T17:14:31.349Z,6.88
2022-08-18T17:17:01.059Z,5.88
2022-08-18T17:19:33.396Z,6.25
2022-08-18T17:22:03.344Z,6.93
2022-08-18T17:24:33.698Z,6.80
2022-08-18T17:27:17.881Z,6.22
2022-08-18T17:30:04.348Z,5.00
2022-08-18T17:32:40.748Z,7.05
2022-08-18T17:35:15.000Z,6.20
2022-08-18T17:37:49.549Z,5.95
2022-08-18T17:40:24.849Z,6.72
2022-08-18T17:42:59.998Z,6.00
2022-08-18T17:45:32.135Z,4.63
2022-08-18T17:48:06.258Z,8.23
2022-08-18T17:50:54.913Z,6.82
2022-08-18T17:53:24.555Z,7.57
2022-08-18T17:56:00.138Z,6.35
2022-08-18T17:58:40.583Z,6.95
2022-08-18T18:01:10.589Z,7.22
2022-08-18T18:03:40.152Z,9.45
2022-08-18T18:06:14.481Z,8.23
2022-08-18T18:08:54.743Z,6.20
2022-08-18T18:11:32.391Z,6.38
2022-08-18T18:14:02.898Z,5.75
2022-08-18T18:16:35.552Z,5.88
2022-08-18T18:19:08.402Z,7.22
2022-08-18T18:22:00.458Z,7.40
2022-08-18T18:24:33.331Z,7.50
2022-08-18T18:27:13.331Z,4.57
2022-08-18T18:29:43.969Z,7.28
2022-08-18T18:32:26.409Z,7.65
2022-08-18T18:35:15.674Z,5.53
2022-08-18T18:37:51.985Z,6.95
2022-08-18T18:40:32.637Z,6.50
2022-08-18T18:43:23.418Z,5.07
2022-08-18T18:46:23.335Z,8.00
2022-08-18T18:49:12.469Z,6.82
2022-08-18T18:51:51.039Z,5.65
2022-08-18T18:54:36.189Z,9.43
2022-08-18T18:57:12.481Z,4.55
2022-08-18T19:02:40.919Z,6.28
2022-08-18T19:05:22.149Z,7.55
2022-08-18T19:08:07.720Z,6.50
2022-08-18T19:10:41.440Z,7.22
2022-08-18T19:13:32.551Z,11.15
2022-08-18T19:16:23.588Z,7.40
2022-08-18T19:19:37.678Z,9.40
2022-08-18T19:22:03.596Z,7.60
2022-08-18T19:24:39.325Z,7.45
2022-08-18T19:27:23.155Z,6.05
2022-08-18T19:29:57.049Z,6.78
2022-08-18T19:32:38.229Z,5.80
2022-08-18T19:35:11.773Z,9.38
2022-08-18T19:38:04.618Z,7.85
2022-08-18T19:40:45.283Z,7.22
2022-08-18T19:43:26.778Z,10.38
2022-08-18T19:46:02.191Z,10.10
2022-08-18T19:48:39.528Z,8.32
2022-08-18T19:51:13.208Z,9.57
2022-08-18T19:54:00.857Z,10.75
2022-08-18T19:56:48.920Z,11.77
2022-08-18T19:59:39.958Z,7.13
2022-08-18T20:02:28.899Z,6.35
2022-08-18T20:05:13.580Z,7.43
2022-08-18T20:08:06.031Z,4.78
2022-08-18T20:10:58.060Z,6.93
2022-08-18T20:13:35.508Z,5.80
2022-08-18T20:16:44.317Z,5.50
2022-08-18T20:19:41.872Z,5.20
2022-08-18T20:22:28.213Z,5.38
2022-08-18T20:25:05.652Z,8.02
2022-08-18T20:27:37.357Z,5.30
2022-08-18T20:30:35.209Z,8.18
2022-08-18T20:33:19.828Z,4.63
2022-08-18T20:35:59.477Z,8.43
2022-08-18T20:38:35.386Z,5.68
2022-08-18T20:41:47.397Z,7.38
2022-08-18T20:44:39.176Z,7.53
2022-08-18T20:47:44.089Z,6.40
2022-08-18T20:50:51.317Z,5.35
2022-08-18T20:53:59.166Z,4.40
2022-08-18T20:56:46.747Z,5.90
2022-08-18T20:59:20.667Z,8.52
2022-08-18T21:01:58.356Z,7.88
2022-08-18T21:04:42.450Z,4.95
2022-08-18T21:07:36.665Z,7.82
2022-08-18T21:10:14.597Z,5.65
2022-08-18T21:12:52.437Z,6.25
2022-08-18T21:15:24.600Z,5.18
2022-08-18T21:18:01.608Z,4.90
2022-08-18T21:20:31.878Z,6.78
2022-08-18T21:23:06.979Z,4.10
2022-08-18T21:25:37.919Z,4.00
2022-08-18T21:28:07.918Z,6.68
2022-08-18T21:30:38.263Z,5.85
2022-08-18T21:33:20.412Z,7.95
2022-08-18T21:35:49.499Z,8.75
2022-08-18T21:38:27.167Z,7.45
2022-08-18T21:41:01.168Z,6.85
2022-08-18T21:43:49.330Z,5.00
2022-08-18T21:46:25.697Z,8.68
2022-08-18T21:48:56.604Z,6.18
2022-08-18T21:51:27.692Z,7.40
2022-08-18T21:53:58.732Z,8.13
2022-08-18T21:56:31.291Z,5.72
2022-08-18T21:59:09.803Z,11.73
2022-08-18T22:01:48.205Z,6.65
2022-08-18T22:04:27.650Z,6.50
2022-08-18T22:06:59.537Z,9.00
2022-08-18T22:09:47.710Z,8.02
2022-08-18T22:12:58.392Z,11.25
2022-08-18T22:15:42.804Z,9.02
2022-08-18T22:18:35.955Z,5.93
2022-08-18T22:21:10.410Z,7.15
2022-08-18T22:24:03.186Z,7.80
2022-08-18T22:26:35.115Z,6.15
2022-08-18T22:29:14.555Z,7.53
2022-08-18T22:31:45.456Z,10.20
2022-08-18T22:34:17.636Z,7.22
2022-08-18T22:37:00.001Z,8.30
2022-08-18T22:39:30.975Z,7.07
2022-08-18T22:42:00.618Z,5.93
2022-08-18T22:44:31.319Z,7.97
2022-08-18T22:47:00.369Z,7.63
2022-08-18T22:49:30.160Z,9.13
2022-08-18T22:52:01.711Z,9.02
2022-08-18T22:54:30.860Z,5.10
2022-08-18T22:57:01.510Z,6.78
2022-08-18T22:59:32.670Z,6.18
2022-08-18T23:02:02.984Z,6.72
2022-08-18T23:04:31.823Z,7.93
2022-08-18T23:07:00.864Z,6.70
2022-08-18T23:09:31.930Z,9.25
2022-08-18T23:12:06.973Z,7.13
2022-08-18T23:14:37.913Z,7.63
2022-08-18T23:17:07.972Z,6.43
2022-08-18T23:19:36.796Z,5.20
2022-08-18T23:22:06.828Z,8.63
2022-08-18T23:24:35.938Z,5.80
2022-08-18T23:27:06.416Z,8.23
2022-08-18T23:29:37.129Z,4.90
2022-08-18T23:32:07.129Z,6.00
2022-08-18T23:34:37.635Z,6.22
2022-08-18T23:37:09.745Z,3.92
2022-08-18T23:39:39.910Z,8.40
2022-08-18T23:42:13.285Z,6.22
2022-08-18T23:44:43.620Z,5.32
2022-08-18T23:47:13.759Z,6.20
2022-08-18T23:49:42.624Z,7.38
2022-08-18T23:52:11.508Z,9.23
2022-08-18T23:54:40.397Z,7.13
2022-08-18T23:57:09.282Z,5.90
2022-08-18T23:59:38.082Z,6.32
